sensor_id;sensor_type;location;lat;lon;timestamp;P1;durP1;ratioP1;P2;durP2;ratioP2
36001;SDS011;22070;50.922;5.430;2022-11-12T00:00:29;28.02;;;16.27;;
36001;SDS011;22070;50.922;5.430;2022-11-12T00:02:55;29.58;;;16.77;;
36001;SDS011;22070;50.922;5.430;2022-11-12T00:05:21;31.25;;;16.85;;
36001;SDS011;22070;50.922;5.430;2022-11-12T00:07:46;30.48;;;16.60;;
36001;SDS011;22070;50.922;5.430;2022-11-12T00:10:12;26.20;;;16.00;;
36001;SDS011;22070;50.922;5.430;2022-11-12T00:12:38;28.40;;;17.35;;
36001;SDS011;22070;50.922;5.430;2022-11-12T00:15:04;20.02;;;12.13;;
36001;SDS011;22070;50.922;5.430;2022-11-12T00:17:30;30.85;;;17.52;;
36001;SDS011;22070;50.922;5.430;2022-11-12T00:19:55;28.08;;;16.45;;
36001;SDS011;22070;50.922;5.430;2022-11-12T00:22:21;26.20;;;15.85;;
36001;SDS011;22070;50.922;5.430;2022-11-12T00:24:47;25.13;;;15.25;;
36001;SDS011;22070;50.922;5.430;2022-11-12T00:27:12;22.98;;;14.75;;
36001;SDS011;22070;50.922;5.430;2022-11-12T00:29:38;28.50;;;16.88;;
36001;SDS011;22070;50.922;5.430;2022-11-12T00:32:05;31.98;;;17.48;;
36001;SDS011;22070;50.922;5.430;2022-11-12T00:34:31;36.92;;;19.42;;
36001;SDS011;22070;50.922;5.430;2022-11-12T00:36:57;33.13;;;17.57;;
36001;SDS011;22070;50.922;5.430;2022-11-12T00:39:23;29.97;;;16.33;;
36001;SDS011;22070;50.922;5.430;2022-11-12T00:41:49;28.27;;;16.30;;
36001;SDS011;22070;50.922;5.430;2022-11-12T00:44:14;27.38;;;16.63;;
36001;SDS011;22070;50.922;5.430;2022-11-12T00:46:40;25.80;;;14.73;;
36001;SDS011;22070;50.922;5.430;2022-11-12T00:49:06;28.55;;;14.68;;
36001;SDS011;22070;50.922;5.430;2022-11-12T00:51:33;26.48;;;14.35;;
36001;SDS011;22070;50.922;5.430;2022-11-12T00:53:59;22.70;;;14.30;;
36001;SDS011;22070;50.922;5.430;2022-11-12T00:56:25;22.80;;;14.15;;
36001;SDS011;22070;50.922;5.430;2022-11-12T00:58:50;22.48;;;14.77;;
36001;SDS011;22070;50.922;5.430;2022-11-12T01:01:16;23.95;;;13.57;;
36001;SDS011;22070;50.922;5.430;2022-11-12T01:03:42;23.85;;;13.35;;
36001;SDS011;22070;50.922;5.430;2022-11-12T01:06:09;24.38;;;14.20;;
36001;SDS011;22070;50.922;5.430;2022-11-12T01:08:43;24.85;;;13.65;;
36001;SDS011;22070;50.922;5.430;2022-11-12T01:11:10;21.85;;;13.02;;
36001;SDS011;22070;50.922;5.430;2022-11-12T01:13:38;21.00;;;12.85;;
36001;SDS011;22070;50.922;5.430;2022-11-12T01:16:06;27.30;;;13.50;;
36001;SDS011;22070;50.922;5.430;2022-11-12T01:18:52;21.73;;;12.90;;
36001;SDS011;22070;50.922;5.430;2022-11-12T01:21:24;22.00;;;13.68;;
36001;SDS011;22070;50.922;5.430;2022-11-12T01:23:52;21.17;;;11.93;;
36001;SDS011;22070;50.922;5.430;2022-11-12T01:26:18;19.42;;;12.07;;
36001;SDS011;22070;50.922;5.430;2022-11-12T01:28:45;22.23;;;13.63;;
36001;SDS011;22070;50.922;5.430;2022-11-12T01:31:16;22.25;;;13.60;;
36001;SDS011;22070;50.922;5.430;2022-11-12T01:33:44;20.30;;;12.60;;
36001;SDS011;22070;50.922;5.430;2022-11-12T01:36:11;20.00;;;12.07;;
36001;SDS011;22070;50.922;5.430;2022-11-12T01:38:39;20.73;;;11.82;;
36001;SDS011;22070;50.922;5.430;2022-11-12T01:41:06;18.65;;;10.65;;
36001;SDS011;22070;50.922;5.430;2022-11-12T01:43:33;20.25;;;11.25;;
36001;SDS011;22070;50.922;5.430;2022-11-12T01:46:00;21.10;;;11.15;;
36001;SDS011;22070;50.922;5.430;2022-11-12T01:49:04;17.35;;;10.40;;
36001;SDS011;22070;50.922;5.430;2022-11-12T01:51:29;23.77;;;10.80;;
36001;SDS011;22070;50.922;5.430;2022-11-12T01:53:59;16.83;;;9.98;;
36001;SDS011;22070;50.922;5.430;2022-11-12T01:56:27;19.35;;;10.32;;
36001;SDS011;22070;50.922;5.430;2022-11-12T01:58:58;15.95;;;10.32;;
36001;SDS011;22070;50.922;5.430;2022-11-12T02:03:58;20.02;;;9.68;;
36001;SDS011;22070;50.922;5.430;2022-11-12T02:06:24;17.15;;;9.70;;
36001;SDS011;22070;50.922;5.430;2022-11-12T02:08:50;16.15;;;9.13;;
36001;SDS011;22070;50.922;5.430;2022-11-12T02:11:17;15.55;;;9.75;;
36001;SDS011;22070;50.922;5.430;2022-11-12T02:13:45;15.43;;;10.00;;
36001;SDS011;22070;50.922;5.430;2022-11-12T02:16:21;18.08;;;10.45;;
36001;SDS011;22070;50.922;5.430;2022-11-12T02:18:50;15.80;;;9.65;;
36001;SDS011;22070;50.922;5.430;2022-11-12T02:21:20;16.90;;;9.30;;
36001;SDS011;22070;50.922;5.430;2022-11-12T02:23:55;18.00;;;9.52;;
36001;SDS011;22070;50.922;5.430;2022-11-12T02:26:21;16.23;;;9.52;;
36001;SDS011;22070;50.922;5.430;2022-11-12T02:28:47;22.02;;;10.38;;
36001;SDS011;22070;50.922;5.430;2022-11-12T02:31:13;16.20;;;10.20;;
36001;SDS011;22070;50.922;5.430;2022-11-12T02:33:38;17.23;;;11.02;;
36001;SDS011;22070;50.922;5.430;2022-11-12T02:36:04;17.33;;;10.68;;
36001;SDS011;22070;50.922;5.430;2022-11-12T02:38:30;16.42;;;10.00;;
36001;SDS011;22070;50.922;5.430;2022-11-12T02:40:55;16.45;;;10.07;;
36001;SDS011;22070;50.922;5.430;2022-11-12T02:43:21;15.75;;;10.02;;
36001;SDS011;22070;50.922;5.430;2022-11-12T02:45:47;15.95;;;9.63;;
36001;SDS011;22070;50.922;5.430;2022-11-12T02:48:12;13.90;;;8.73;;
36001;SDS011;22070;50.922;5.430;2022-11-12T02:50:38;15.45;;;8.90;;
36001;SDS011;22070;50.922;5.430;2022-11-12T02:53:03;14.00;;;7.70;;
36001;SDS011;22070;50.922;5.430;2022-11-12T02:55:29;12.98;;;8.30;;
36001;SDS011;22070;50.922;5.430;2022-11-12T02:57:58;11.80;;;7.57;;
36001;SDS011;22070;50.922;5.430;2022-11-12T03:00:24;15.05;;;7.75;;
36001;SDS011;22070;50.922;5.430;2022-11-12T03:02:50;15.07;;;7.22;;
36001;SDS011;22070;50.922;5.430;2022-11-12T03:05:33;13.07;;;8.10;;
36001;SDS011;22070;50.922;5.430;2022-11-12T03:08:04;11.52;;;7.55;;
36001;SDS011;22070;50.922;5.430;2022-11-12T03:10:31;12.50;;;7.70;;
36001;SDS011;22070;50.922;5.430;2022-11-12T03:12:58;11.00;;;7.30;;
36001;SDS011;22070;50.922;5.430;2022-11-12T03:15:25;10.75;;;7.10;;
36001;SDS011;22070;50.922;5.430;2022-11-12T03:17:52;12.57;;;7.50;;
36001;SDS011;22070;50.922;5.430;2022-11-12T03:20:18;12.70;;;7.75;;
36001;SDS011;22070;50.922;5.430;2022-11-12T03:22:57;11.43;;;7.35;;
36001;SDS011;22070;50.922;5.430;2022-11-12T03:25:24;11.18;;;7.78;;
36001;SDS011;22070;50.922;5.430;2022-11-12T03:30:28;11.23;;;6.88;;
36001;SDS011;22070;50.922;5.430;2022-11-12T03:32:56;12.20;;;7.30;;
36001;SDS011;22070;50.922;5.430;2022-11-12T03:35:22;13.43;;;7.47;;
36001;SDS011;22070;50.922;5.430;2022-11-12T03:37:48;11.00;;;6.93;;
36001;SDS011;22070;50.922;5.430;2022-11-12T03:40:14;12.43;;;7.17;;
36001;SDS011;22070;50.922;5.430;2022-11-12T03:42:44;14.48;;;7.63;;
36001;SDS011;22070;50.922;5.430;2022-11-12T03:45:11;10.70;;;7.30;;
36001;SDS011;22070;50.922;5.430;2022-11-12T03:47:44;12.00;;;7.38;;
36001;SDS011;22070;50.922;5.430;2022-11-12T03:50:12;11.73;;;7.25;;
36001;SDS011;22070;50.922;5.430;2022-11-12T03:52:46;9.85;;;6.60;;
36001;SDS011;22070;50.922;5.430;2022-11-12T03:55:13;12.25;;;7.05;;
36001;SDS011;22070;50.922;5.430;2022-11-12T03:57:40;9.90;;;6.40;;
36001;SDS011;22070;50.922;5.430;2022-11-12T04:00:06;11.90;;;6.77;;
36001;SDS011;22070;50.922;5.430;2022-11-12T04:02:34;10.15;;;6.50;;
36001;SDS011;22070;50.922;5.430;2022-11-12T04:05:00;11.15;;;7.35;;
36001;SDS011;22070;50.922;5.430;2022-11-12T04:07:44;11.68;;;6.45;;
36001;SDS011;22070;50.922;5.430;2022-11-12T04:10:32;9.18;;;6.15;;
36001;SDS011;22070;50.922;5.430;2022-11-12T04:12:57;9.13;;;6.55;;
36001;SDS011;22070;50.922;5.430;2022-11-12T04:15:41;10.07;;;6.50;;
36001;SDS011;22070;50.922;5.430;2022-11-12T04:18:07;11.60;;;6.88;;
36001;SDS011;22070;50.922;5.430;2022-11-12T04:20:51;10.45;;;6.93;;
36001;SDS011;22070;50.922;5.430;2022-11-12T04:23:35;11.57;;;7.35;;
36001;SDS011;22070;50.922;5.430;2022-11-12T04:26:01;11.50;;;6.95;;
36001;SDS011;22070;50.922;5.430;2022-11-12T04:28:45;8.65;;;6.03;;
36001;SDS011;22070;50.922;5.430;2022-11-12T04:31:29;9.95;;;6.43;;
36001;SDS011;22070;50.922;5.430;2022-11-12T04:33:55;13.75;;;6.75;;
36001;SDS011;22070;50.922;5.430;2022-11-12T04:36:40;8.77;;;6.88;;
36001;SDS011;22070;50.922;5.430;2022-11-12T04:39:06;13.40;;;6.07;;
36001;SDS011;22070;50.922;5.430;2022-11-12T04:41:32;9.73;;;6.18;;
36001;SDS011;22070;50.922;5.430;2022-11-12T04:44:15;8.93;;;6.25;;
36001;SDS011;22070;50.922;5.430;2022-11-12T04:46:59;11.77;;;6.80;;
36001;SDS011;22070;50.922;5.430;2022-11-12T04:49:25;11.70;;;6.50;;
36001;SDS011;22070;50.922;5.430;2022-11-12T04:51:51;11.07;;;6.50;;
36001;SDS011;22070;50.922;5.430;2022-11-12T04:54:31;12.10;;;6.07;;
36001;SDS011;22070;50.922;5.430;2022-11-12T04:56:57;11.75;;;7.00;;
36001;SDS011;22070;50.922;5.430;2022-11-12T04:59:23;9.63;;;6.35;;
36001;SDS011;22070;50.922;5.430;2022-11-12T05:01:49;10.95;;;6.75;;
36001;SDS011;22070;50.922;5.430;2022-11-12T05:04:14;8.88;;;6.50;;
36001;SDS011;22070;50.922;5.430;2022-11-12T05:06:40;9.73;;;6.10;;
36001;SDS011;22070;50.922;5.430;2022-11-12T05:09:22;9.38;;;6.57;;
36001;SDS011;22070;50.922;5.430;2022-11-12T05:11:50;10.55;;;6.22;;
36001;SDS011;22070;50.922;5.430;2022-11-12T05:14:16;8.90;;;6.35;;
36001;SDS011;22070;50.922;5.430;2022-11-12T05:16:42;10.45;;;6.35;;
36001;SDS011;22070;50.922;5.430;2022-11-12T05:19:08;9.80;;;6.60;;
36001;SDS011;22070;50.922;5.430;2022-11-12T05:21:34;11.25;;;6.63;;
36001;SDS011;22070;50.922;5.430;2022-11-12T05:24:18;9.15;;;6.50;;
36001;SDS011;22070;50.922;5.430;2022-11-12T05:26:44;9.10;;;6.55;;
36001;SDS011;22070;50.922;5.430;2022-11-12T05:29:10;9.93;;;6.55;;
36001;SDS011;22070;50.922;5.430;2022-11-12T05:31:35;13.38;;;6.70;;
36001;SDS011;22070;50.922;5.430;2022-11-12T05:34:01;11.57;;;6.18;;
36001;SDS011;22070;50.922;5.430;2022-11-12T05:36:26;9.98;;;6.53;;
36001;SDS011;22070;50.922;5.430;2022-11-12T05:38:52;10.82;;;6.85;;
36001;SDS011;22070;50.922;5.430;2022-11-12T05:41:18;11.45;;;6.75;;
36001;SDS011;22070;50.922;5.430;2022-11-12T05:43:43;10.95;;;6.72;;
36001;SDS011;22070;50.922;5.430;2022-11-12T05:46:09;9.25;;;6.78;;
36001;SDS011;22070;50.922;5.430;2022-11-12T05:48:35;10.23;;;6.72;;
36001;SDS011;22070;50.922;5.430;2022-11-12T05:51:00;9.52;;;6.05;;
36001;SDS011;22070;50.922;5.430;2022-11-12T05:53:26;16.48;;;7.20;;
36001;SDS011;22070;50.922;5.430;2022-11-12T05:55:52;10.30;;;6.70;;
36001;SDS011;22070;50.922;5.430;2022-11-12T05:58:17;14.38;;;6.60;;
36001;SDS011;22070;50.922;5.430;2022-11-12T06:00:43;10.23;;;5.70;;
36001;SDS011;22070;50.922;5.430;2022-11-12T06:03:09;8.35;;;5.72;;
36001;SDS011;22070;50.922;5.430;2022-11-12T06:05:36;11.13;;;6.40;;
36001;SDS011;22070;50.922;5.430;2022-11-12T06:08:02;10.13;;;5.72;;
36001;SDS011;22070;50.922;5.430;2022-11-12T06:10:30;12.00;;;5.78;;
36001;SDS011;22070;50.922;5.430;2022-11-12T06:12:56;7.75;;;5.80;;
36001;SDS011;22070;50.922;5.430;2022-11-12T06:15:23;10.15;;;6.28;;
36001;SDS011;22070;50.922;5.430;2022-11-12T06:17:51;10.15;;;5.55;;
36001;SDS011;22070;50.922;5.430;2022-11-12T06:20:17;21.70;;;6.35;;
36001;SDS011;22070;50.922;5.430;2022-11-12T06:22:43;12.82;;;6.05;;
36001;SDS011;22070;50.922;5.430;2022-11-12T06:25:09;10.48;;;6.00;;
36001;SDS011;22070;50.922;5.430;2022-11-12T06:27:34;8.23;;;5.70;;
36001;SDS011;22070;50.922;5.430;2022-11-12T06:30:01;9.32;;;6.03;;
36001;SDS011;22070;50.922;5.430;2022-11-12T06:32:27;6.78;;;5.28;;
36001;SDS011;22070;50.922;5.430;2022-11-12T06:34:53;8.48;;;5.88;;
36001;SDS011;22070;50.922;5.430;2022-11-12T06:37:18;9.25;;;5.57;;
36001;SDS011;22070;50.922;5.430;2022-11-12T06:39:46;11.43;;;6.00;;
36001;SDS011;22070;50.922;5.430;2022-11-12T06:42:12;11.17;;;5.83;;
36001;SDS011;22070;50.922;5.430;2022-11-12T06:44:38;9.13;;;5.70;;
36001;SDS011;22070;50.922;5.430;2022-11-12T06:47:04;11.20;;;6.47;;
36001;SDS011;22070;50.922;5.430;2022-11-12T06:49:30;12.88;;;6.72;;
36001;SDS011;22070;50.922;5.430;2022-11-12T06:51:56;9.63;;;5.88;;
36001;SDS011;22070;50.922;5.430;2022-11-12T06:54:21;11.90;;;5.13;;
36001;SDS011;22070;50.922;5.430;2022-11-12T06:56:47;9.40;;;5.78;;
36001;SDS011;22070;50.922;5.430;2022-11-12T06:59:12;10.02;;;5.43;;
36001;SDS011;22070;50.922;5.430;2022-11-12T07:01:38;11.02;;;6.10;;
36001;SDS011;22070;50.922;5.430;2022-11-12T07:04:04;11.07;;;5.43;;
36001;SDS011;22070;50.922;5.430;2022-11-12T07:06:29;12.65;;;5.80;;
36001;SDS011;22070;50.922;5.430;2022-11-12T07:08:55;8.77;;;5.57;;
36001;SDS011;22070;50.922;5.430;2022-11-12T07:11:21;9.10;;;5.45;;
36001;SDS011;22070;50.922;5.430;2022-11-12T07:13:46;10.63;;;6.00;;
36001;SDS011;22070;50.922;5.430;2022-11-12T07:16:12;8.45;;;6.07;;
36001;SDS011;22070;50.922;5.430;2022-11-12T07:18:42;10.63;;;5.97;;
36001;SDS011;22070;50.922;5.430;2022-11-12T07:21:10;11.25;;;6.13;;
36001;SDS011;22070;50.922;5.430;2022-11-12T07:23:37;11.45;;;6.57;;
36001;SDS011;22070;50.922;5.430;2022-11-12T07:26:07;12.00;;;6.03;;
36001;SDS011;22070;50.922;5.430;2022-11-12T07:28:38;8.85;;;5.72;;
36001;SDS011;22070;50.922;5.430;2022-11-12T07:31:05;9.55;;;5.78;;
36001;SDS011;22070;50.922;5.430;2022-11-12T07:33:33;11.23;;;6.75;;
36001;SDS011;22070;50.922;5.430;2022-11-12T07:36:00;18.73;;;7.35;;
36001;SDS011;22070;50.922;5.430;2022-11-12T07:38:31;14.25;;;7.53;;
36001;SDS011;22070;50.922;5.430;2022-11-12T07:41:05;12.88;;;7.28;;
36001;SDS011;22070;50.922;5.430;2022-11-12T07:43:33;11.13;;;6.70;;
36001;SDS011;22070;50.922;5.430;2022-11-12T07:46:00;12.50;;;7.28;;
36001;SDS011;22070;50.922;5.430;2022-11-12T07:48:28;12.50;;;6.63;;
36001;SDS011;22070;50.922;5.430;2022-11-12T07:51:01;12.93;;;7.50;;
36001;SDS011;22070;50.922;5.430;2022-11-12T07:53:29;11.90;;;7.07;;
36001;SDS011;22070;50.922;5.430;2022-11-12T07:55:55;19.08;;;7.13;;
36001;SDS011;22070;50.922;5.430;2022-11-12T07:58:23;13.07;;;7.90;;
36001;SDS011;22070;50.922;5.430;2022-11-12T08:00:49;21.13;;;8.80;;
36001;SDS011;22070;50.922;5.430;2022-11-12T08:03:15;16.63;;;8.05;;
36001;SDS011;22070;50.922;5.430;2022-11-12T08:05:41;28.48;;;9.50;;
36001;SDS011;22070;50.922;5.430;2022-11-12T08:08:07;20.98;;;9.63;;
36001;SDS011;22070;50.922;5.430;2022-11-12T08:10:33;13.90;;;8.30;;
36001;SDS011;22070;50.922;5.430;2022-11-12T08:12:59;13.75;;;7.32;;
36001;SDS011;22070;50.922;5.430;2022-11-12T08:15:24;13.40;;;7.25;;
36001;SDS011;22070;50.922;5.430;2022-11-12T08:17:50;13.35;;;7.38;;
36001;SDS011;22070;50.922;5.430;2022-11-12T08:20:16;6.80;;;5.22;;
36001;SDS011;22070;50.922;5.430;2022-11-12T08:22:41;14.63;;;7.20;;
36001;SDS011;22070;50.922;5.430;2022-11-12T08:25:07;16.15;;;7.55;;
36001;SDS011;22070;50.922;5.430;2022-11-12T08:27:33;13.27;;;7.60;;
36001;SDS011;22070;50.922;5.430;2022-11-12T08:29:59;19.83;;;7.97;;
36001;SDS011;22070;50.922;5.430;2022-11-12T08:32:25;32.65;;;10.68;;
36001;SDS011;22070;50.922;5.430;2022-11-12T08:34:51;33.00;;;15.23;;
36001;SDS011;22070;50.922;5.430;2022-11-12T08:37:16;18.33;;;9.88;;
36001;SDS011;22070;50.922;5.430;2022-11-12T08:39:42;14.73;;;9.52;;
36001;SDS011;22070;50.922;5.430;2022-11-12T08:42:07;21.08;;;10.52;;
36001;SDS011;22070;50.922;5.430;2022-11-12T08:44:33;16.95;;;9.35;;
36001;SDS011;22070;50.922;5.430;2022-11-12T08:46:59;17.58;;;8.02;;
36001;SDS011;22070;50.922;5.430;2022-11-12T08:49:25;18.75;;;8.50;;
36001;SDS011;22070;50.922;5.430;2022-11-12T08:51:50;16.25;;;8.60;;
36001;SDS011;22070;50.922;5.430;2022-11-12T08:54:16;16.05;;;8.00;;
36001;SDS011;22070;50.922;5.430;2022-11-12T08:56:42;14.48;;;7.93;;
36001;SDS011;22070;50.922;5.430;2022-11-12T08:59:07;15.05;;;8.13;;
36001;SDS011;22070;50.922;5.430;2022-11-12T09:01:33;12.43;;;7.82;;
36001;SDS011;22070;50.922;5.430;2022-11-12T09:03:59;14.13;;;7.55;;
36001;SDS011;22070;50.922;5.430;2022-11-12T09:06:25;15.18;;;7.75;;
36001;SDS011;22070;50.922;5.430;2022-11-12T09:08:50;17.05;;;8.30;;
36001;SDS011;22070;50.922;5.430;2022-11-12T09:11:16;17.45;;;8.88;;
36001;SDS011;22070;50.922;5.430;2022-11-12T09:13:42;14.55;;;8.05;;
36001;SDS011;22070;50.922;5.430;2022-11-12T09:16:08;13.25;;;8.02;;
36001;SDS011;22070;50.922;5.430;2022-11-12T09:18:34;15.80;;;8.30;;
36001;SDS011;22070;50.922;5.430;2022-11-12T09:21:10;15.93;;;8.52;;
36001;SDS011;22070;50.922;5.430;2022-11-12T09:23:36;17.63;;;8.38;;
36001;SDS011;22070;50.922;5.430;2022-11-12T09:26:03;17.05;;;9.27;;
36001;SDS011;22070;50.922;5.430;2022-11-12T09:28:29;17.02;;;9.43;;
36001;SDS011;22070;50.922;5.430;2022-11-12T09:30:55;13.73;;;8.88;;
36001;SDS011;22070;50.922;5.430;2022-11-12T09:33:22;19.02;;;10.02;;
36001;SDS011;22070;50.922;5.430;2022-11-12T09:35:50;19.27;;;9.02;;
36001;SDS011;22070;50.922;5.430;2022-11-12T09:38:17;15.52;;;8.65;;
36001;SDS011;22070;50.922;5.430;2022-11-12T09:40:53;14.50;;;8.40;;
36001;SDS011;22070;50.922;5.430;2022-11-12T09:43:38;16.33;;;8.30;;
36001;SDS011;22070;50.922;5.430;2022-11-12T09:46:24;12.68;;;8.05;;
36001;SDS011;22070;50.922;5.430;2022-11-12T09:49:17;11.35;;;7.55;;
36001;SDS011;22070;50.922;5.430;2022-11-12T09:56:46;12.13;;;7.38;;
36001;SDS011;22070;50.922;5.430;2022-11-12T09:59:13;12.18;;;6.88;;
36001;SDS011;22070;50.922;5.430;2022-11-12T10:01:45;12.57;;;6.97;;
36001;SDS011;22070;50.922;5.430;2022-11-12T10:04:37;12.93;;;6.47;;
36001;SDS011;22070;50.922;5.430;2022-11-12T10:24:09;12.13;;;7.30;;
36001;SDS011;22070;50.922;5.430;2022-11-12T10:26:36;12.50;;;7.05;;
36001;SDS011;22070;50.922;5.430;2022-11-12T10:31:35;11.65;;;7.03;;
36001;SDS011;22070;50.922;5.430;2022-11-12T10:34:20;9.73;;;6.72;;
36001;SDS011;22070;50.922;5.430;2022-11-12T10:36:58;9.70;;;6.30;;
36001;SDS011;22070;50.922;5.430;2022-11-12T10:39:34;11.48;;;6.65;;
36001;SDS011;22070;50.922;5.430;2022-11-12T10:42:12;9.05;;;6.32;;
36001;SDS011;22070;50.922;5.430;2022-11-12T10:44:39;7.75;;;5.78;;
36001;SDS011;22070;50.922;5.430;2022-11-12T10:52:58;16.58;;;6.63;;
36001;SDS011;22070;50.922;5.430;2022-11-12T10:55:27;11.65;;;6.55;;
36001;SDS011;22070;50.922;5.430;2022-11-12T11:00:35;11.07;;;6.50;;
36001;SDS011;22070;50.922;5.430;2022-11-12T11:03:26;11.30;;;6.60;;
36001;SDS011;22070;50.922;5.430;2022-11-12T11:08:40;9.07;;;6.15;;
36001;SDS011;22070;50.922;5.430;2022-11-12T11:11:09;8.38;;;6.25;;
36001;SDS011;22070;50.922;5.430;2022-11-12T11:13:48;15.05;;;6.60;;
36001;SDS011;22070;50.922;5.430;2022-11-12T11:16:17;8.63;;;5.88;;
36001;SDS011;22070;50.922;5.430;2022-11-12T11:18:46;9.70;;;5.63;;
36001;SDS011;22070;50.922;5.430;2022-11-12T11:26:53;7.13;;;5.68;;
36001;SDS011;22070;50.922;5.430;2022-11-12T11:29:21;9.52;;;6.35;;
36001;SDS011;22070;50.922;5.430;2022-11-12T11:32:14;6.50;;;5.10;;
36001;SDS011;22070;50.922;5.430;2022-11-12T11:37:26;9.32;;;5.80;;
36001;SDS011;22070;50.922;5.430;2022-11-12T11:47:55;7.70;;;5.40;;
36001;SDS011;22070;50.922;5.430;2022-11-12T11:50:51;7.28;;;5.15;;
36001;SDS011;22070;50.922;5.430;2022-11-12T11:53:36;14.43;;;5.35;;
36001;SDS011;22070;50.922;5.430;2022-11-12T11:56:30;8.32;;;5.28;;
36001;SDS011;22070;50.922;5.430;2022-11-12T12:13:09;7.88;;;4.32;;
36001;SDS011;22070;50.922;5.430;2022-11-12T12:21:43;6.85;;;3.70;;
36001;SDS011;22070;50.922;5.430;2022-11-12T12:26:46;4.35;;;3.35;;
36001;SDS011;22070;50.922;5.430;2022-11-12T12:29:33;3.72;;;3.25;;
36001;SDS011;22070;50.922;5.430;2022-11-12T12:32:40;4.25;;;3.15;;
36001;SDS011;22070;50.922;5.430;2022-11-12T12:40:50;4.63;;;3.42;;
36001;SDS011;22070;50.922;5.430;2022-11-12T12:45:52;3.07;;;2.67;;
36001;SDS011;22070;50.922;5.430;2022-11-12T12:48:26;3.72;;;3.20;;
36001;SDS011;22070;50.922;5.430;2022-11-12T12:53:31;4.43;;;3.00;;
36001;SDS011;22070;50.922;5.430;2022-11-12T13:01:07;4.22;;;2.90;;
36001;SDS011;22070;50.922;5.430;2022-11-12T13:17:40;3.70;;;2.80;;
36001;SDS011;22070;50.922;5.430;2022-11-12T13:25:23;4.30;;;2.45;;
36001;SDS011;22070;50.922;5.430;2022-11-12T13:35:33;5.00;;;3.10;;
36001;SDS011;22070;50.922;5.430;2022-11-12T13:38:09;3.60;;;2.80;;
36001;SDS011;22070;50.922;5.430;2022-11-12T13:41:04;3.28;;;2.80;;
36001;SDS011;22070;50.922;5.430;2022-11-12T13:43:44;4.82;;;2.60;;
36001;SDS011;22070;50.922;5.430;2022-11-12T13:48:47;3.00;;;2.67;;
36001;SDS011;22070;50.922;5.430;2022-11-12T13:51:15;6.22;;;2.90;;
36001;SDS011;22070;50.922;5.430;2022-11-12T13:53:44;4.43;;;2.45;;
36001;SDS011;22070;50.922;5.430;2022-11-12T13:56:12;5.80;;;2.83;;
36001;SDS011;22070;50.922;5.430;2022-11-12T13:58:48;3.08;;;2.42;;
36001;SDS011;22070;50.922;5.430;2022-11-12T14:01:14;3.97;;;3.07;;
36001;SDS011;22070;50.922;5.430;2022-11-12T14:03:48;3.85;;;2.95;;
36001;SDS011;22070;50.922;5.430;2022-11-12T14:06:30;3.25;;;2.65;;
36001;SDS011;22070;50.922;5.430;2022-11-12T14:09:11;4.15;;;2.97;;
36001;SDS011;22070;50.922;5.430;2022-11-12T14:11:47;4.95;;;2.38;;
36001;SDS011;22070;50.922;5.430;2022-11-12T14:20:22;7.38;;;3.15;;
36001;SDS011;22070;50.922;5.430;2022-11-12T14:25:48;2.80;;;2.47;;
36001;SDS011;22070;50.922;5.430;2022-11-12T14:28:23;3.67;;;2.65;;
36001;SDS011;22070;50.922;5.430;2022-11-12T14:30:53;3.75;;;2.33;;
36001;SDS011;22070;50.922;5.430;2022-11-12T14:33:21;3.50;;;2.65;;
36001;SDS011;22070;50.922;5.430;2022-11-12T14:35:51;2.88;;;2.17;;
36001;SDS011;22070;50.922;5.430;2022-11-12T14:38:44;3.92;;;2.70;;
36001;SDS011;22070;50.922;5.430;2022-11-12T14:46:24;3.60;;;3.30;;
36001;SDS011;22070;50.922;5.430;2022-11-12T14:48:57;8.15;;;3.42;;
36001;SDS011;22070;50.922;5.430;2022-11-12T14:51:41;3.92;;;3.03;;
36001;SDS011;22070;50.922;5.430;2022-11-12T14:54:15;5.75;;;3.50;;
36001;SDS011;22070;50.922;5.430;2022-11-12T14:56:54;4.50;;;3.15;;
36001;SDS011;22070;50.922;5.430;2022-11-12T14:59:23;5.82;;;3.50;;
36001;SDS011;22070;50.922;5.430;2022-11-12T15:02:06;4.93;;;3.20;;
36001;SDS011;22070;50.922;5.430;2022-11-12T15:04:58;7.00;;;2.78;;
36001;SDS011;22070;50.922;5.430;2022-11-12T15:07:32;3.92;;;2.30;;
36001;SDS011;22070;50.922;5.430;2022-11-12T15:09:59;6.65;;;2.83;;
36001;SDS011;22070;50.922;5.430;2022-11-12T15:12:45;3.63;;;2.50;;
36001;SDS011;22070;50.922;5.430;2022-11-12T15:15:20;7.03;;;3.17;;
36001;SDS011;22070;50.922;5.430;2022-11-12T15:17:46;3.90;;;2.40;;
36001;SDS011;22070;50.922;5.430;2022-11-12T15:20:24;4.93;;;2.78;;
36001;SDS011;22070;50.922;5.430;2022-11-12T15:22:51;7.85;;;4.00;;
36001;SDS011;22070;50.922;5.430;2022-11-12T15:27:44;10.07;;;6.10;;
36001;SDS011;22070;50.922;5.430;2022-11-12T15:32:48;5.68;;;4.38;;
36001;SDS011;22070;50.922;5.430;2022-11-12T15:35:32;7.07;;;3.80;;
36001;SDS011;22070;50.922;5.430;2022-11-12T15:37:59;9.38;;;3.45;;
36001;SDS011;22070;50.922;5.430;2022-11-12T15:40:26;4.15;;;3.15;;
36001;SDS011;22070;50.922;5.430;2022-11-12T15:42:52;3.85;;;2.22;;
36001;SDS011;22070;50.922;5.430;2022-11-12T15:45:19;6.63;;;4.10;;
36001;SDS011;22070;50.922;5.430;2022-11-12T15:47:46;5.57;;;3.13;;
36001;SDS011;22070;50.922;5.430;2022-11-12T15:52:40;6.00;;;3.20;;
36001;SDS011;22070;50.922;5.430;2022-11-12T15:55:06;6.93;;;3.83;;
36001;SDS011;22070;50.922;5.430;2022-11-12T16:00:04;8.10;;;4.68;;
36001;SDS011;22070;50.922;5.430;2022-11-12T16:02:53;9.30;;;5.45;;
36001;SDS011;22070;50.922;5.430;2022-11-12T16:05:21;7.82;;;5.20;;
36001;SDS011;22070;50.922;5.430;2022-11-12T16:07:47;11.32;;;4.72;;
36001;SDS011;22070;50.922;5.430;2022-11-12T16:10:13;8.83;;;4.93;;
36001;SDS011;22070;50.922;5.430;2022-11-12T16:12:40;8.82;;;4.47;;
36001;SDS011;22070;50.922;5.430;2022-11-12T16:15:17;9.65;;;4.65;;
36001;SDS011;22070;50.922;5.430;2022-11-12T16:17:45;10.40;;;4.85;;
36001;SDS011;22070;50.922;5.430;2022-11-12T16:20:33;10.57;;;3.88;;
36001;SDS011;22070;50.922;5.430;2022-11-12T16:22:58;7.35;;;4.10;;
36001;SDS011;22070;50.922;5.430;2022-11-12T16:25:26;7.30;;;4.75;;
36001;SDS011;22070;50.922;5.430;2022-11-12T16:27:54;10.23;;;4.22;;
36001;SDS011;22070;50.922;5.430;2022-11-12T16:32:48;27.70;;;15.30;;
36001;SDS011;22070;50.922;5.430;2022-11-12T16:35:14;11.65;;;5.80;;
36001;SDS011;22070;50.922;5.430;2022-11-12T16:37:43;11.18;;;6.93;;
36001;SDS011;22070;50.922;5.430;2022-11-12T16:40:21;12.27;;;6.60;;
36001;SDS011;22070;50.922;5.430;2022-11-12T16:42:48;12.77;;;6.43;;
36001;SDS011;22070;50.922;5.430;2022-11-12T16:45:15;15.48;;;8.73;;
36001;SDS011;22070;50.922;5.430;2022-11-12T16:47:45;14.70;;;6.93;;
36001;SDS011;22070;50.922;5.430;2022-11-12T16:50:13;12.00;;;7.40;;
36001;SDS011;22070;50.922;5.430;2022-11-12T16:52:40;16.10;;;7.10;;
36001;SDS011;22070;50.922;5.430;2022-11-12T16:55:06;11.68;;;6.47;;
36001;SDS011;22070;50.922;5.430;2022-11-12T16:57:32;11.25;;;6.57;;
36001;SDS011;22070;50.922;5.430;2022-11-12T16:59:58;10.70;;;6.43;;
36001;SDS011;22070;50.922;5.430;2022-11-12T17:02:24;14.48;;;6.53;;
36001;SDS011;22070;50.922;5.430;2022-11-12T17:04:49;14.80;;;6.80;;
36001;SDS011;22070;50.922;5.430;2022-11-12T17:07:15;14.52;;;7.10;;
36001;SDS011;22070;50.922;5.430;2022-11-12T17:09:41;14.65;;;7.03;;
36001;SDS011;22070;50.922;5.430;2022-11-12T17:12:07;12.63;;;8.50;;
36001;SDS011;22070;50.922;5.430;2022-11-12T17:14:34;13.73;;;9.00;;
36001;SDS011;22070;50.922;5.430;2022-11-12T17:16:59;16.20;;;9.57;;
36001;SDS011;22070;50.922;5.430;2022-11-12T17:19:25;16.30;;;9.27;;
36001;SDS011;22070;50.922;5.430;2022-11-12T17:21:51;13.27;;;8.52;;